Monday, January 26, 2015
20:27 UTC
  |  Log In   |  Register Free
Airport Search:

Julian Carroll Airport
(KJKL)

Julian Carroll Airport Diagram
No Airport Diagram Available

FAA data valid effective January 08, 2015 - March 05, 2015 (unless otherwise noted).

 
 
 
 
 
 
 
 
 
 
 
 
 
 

Current Aviation Weather for Julian Carroll Airport (KJKL)

The most recent METAR observation for KJKL was updated at: 2010
METAR Summary (Translated METAR)
KJKL
261953Z AUTO VRB06KT 8SM OVC007 M04/M06 A2983 RMK AO2 SLP111 T10391056
KSJS
261955Z AUTO 28008KT 10SM OVC009 M03/M05 A2982 RMK AO2 T10351050
(33.7 nm NE from KJKL)
KPBX
261955Z AUTO 28007KT 5SM -SN OVC007 M04/M05 A2979 RMK AO2 T10381049
(35.8 nm SE from KJKL)
TAF Summary (Translated TAF)
KJKL
261740Z 2618/2718 29009KT 4SM -SHSN OVC006 FM261900 30005KT 2SM -SHSN BR OVC010 FM262200 30009KT 3SM -SHSN BR OVC015 FM270600 30009KT P6SM VCSH OVC010
KSJS
(33.7 nm NE from KJKL)
261740Z 2618/2718 31003KT 1 1/2SM BR BKN008 FM270300 31007KT 3SM -SHSN OVC006 FM271200 31004KT P6SM VCSH OVC010
  Airport Weather Conditions for KJKL

 Current Weather at JKL
25° F
Overcast
Variable winds at 6.9 mph
JKL NOAA Radar

Pressure: 29.83 in
Humidity: 88%
Wind: Variable at 6.9 MPH (6 KT)
Dew Point: 21.9°F
Visibility: 8.00 mi


Airport Weather Forecast for KJKL

Translated METAR and TAF for KJKL
Translated METAR for KJKL (2028 UTC 26 January 2015)
found at http://aviationweather.gov/adds/metars/
 
METAR text: KJKL 261953Z AUTO VRB06KT 8SM OVC007 M04/M06 A2983 RMK AO2 SLP111 T10391056
Conditions at: KJKL (NOCTOR/JACKSON , KY, US) observed 1953 UTC 26 January 2015
Temperature: -3.9°C (25°F)
Dewpoint: -5.6°C (22°F) [RH = 88%]
Pressure (altimeter): 29.83 inches Hg (1010.2 mb)
[Sea-level pressure: 1011.1 mb]
Winds: variable direction winds at 7 MPH (6 knots; 3.1 m/s)
Visibility: 8 miles (13 km)
Ceiling: 700 feet AGL
Clouds: overcast cloud deck at 700 feet AGL
Weather: automated observation with no human augmentation;
there may or may not be significant weather present at this time
Translated TAF for KJKL
Forecast for: KJKL (NOCTOR/JACKSON , KY, US)
TAF Text: KJKL 261740Z 2618/2718 29009KT 4SM -SHSN OVC006
Forecast period: 1800 to 1900 UTC 26 January 2015
Forecast type: FROM: standard forecast or significant change
Winds: from the WNW (290 degrees) at 10 MPH (9 knots; 4.7 m/s)
Visibility: 4 miles (6 km)
Ceiling: 600 feet AGL
Clouds: overcast cloud deck at 600 feet AGL
Weather: -SHSN  (light snow showers)
TAF Text: FM261900 30005KT 2SM -SHSN BR OVC010
Forecast period: 1900 to 2200 UTC 26 January 2015
Forecast type: FROM: standard forecast or significant change
Winds: from the WNW (300 degrees) at 6 MPH (5 knots; 2.6 m/s)
Visibility: 2.00 miles (3.22 km)
Ceiling: 1000 feet AGL
Clouds: overcast cloud deck at 1000 feet AGL
Weather: -SHSN BR  (light snow showers, mist)
TAF Text: FM262200 30009KT 3SM -SHSN BR OVC015
Forecast period: 2200 UTC 26 January 2015 to 0600 UTC 27 January 2015
Forecast type: FROM: standard forecast or significant change
Winds: from the WNW (300 degrees) at 10 MPH (9 knots; 4.7 m/s)
Visibility: 3 miles (5 km)
Ceiling: 1500 feet AGL
Clouds: overcast cloud deck at 1500 feet AGL
Weather: -SHSN BR  (light snow showers, mist)
TAF Text: FM270600 30009KT P6SM VCSH OVC010
Forecast period: 0600 to 1800 UTC 27 January 2015
Forecast type: FROM: standard forecast or significant change
Winds: from the WNW (300 degrees) at 10 MPH (9 knots; 4.7 m/s)
Visibility: 6 or more miles (10+ km)
Ceiling: 1000 feet AGL
Clouds: overcast cloud deck at 1000 feet AGL
Weather: VCSH  (showers in vicinity)

Find All Airport Services Find A Hotel Find A Rental Car Find A Golf Course Find A Restaurant $100 Hamburger



FBO's on the Field
FBO Company Facility Photos Services Transportation Aviation Fuel Prices: Prices include tax
Catering Weather Repair Courtesy Rental Type 100LL JetA JetA+ MOGAS 8087
 
Add another FBO Facility Photos Catering Weather Repair Courtesy Rental Type 100LL JetA JetA+ MOGAS 8087
Services Transportation Aviation Fuel Prices: Prices include tax
There are no FBO's currently reporting fuel at JKL. List your FBO now


model-print
model-print
model-print
model-print